sensor_id;sensor_type;location;lat;lon;timestamp;P1;durP1;ratioP1;P2;durP2;ratioP2
46589;SDS011;32313;48.722;9.362;2023-12-22T00:00:17;5.97;;;4.53;;
46589;SDS011;32313;48.722;9.362;2023-12-22T00:02:43;7.43;;;4.40;;
46589;SDS011;32313;48.722;9.362;2023-12-22T00:05:09;4.43;;;4.10;;
46589;SDS011;32313;48.722;9.362;2023-12-22T00:07:34;4.40;;;4.00;;
46589;SDS011;32313;48.722;9.362;2023-12-22T00:10:00;5.70;;;4.13;;
46589;SDS011;32313;48.722;9.362;2023-12-22T00:12:27;8.47;;;4.97;;
46589;SDS011;32313;48.722;9.362;2023-12-22T00:14:53;7.33;;;3.90;;
46589;SDS011;32313;48.722;9.362;2023-12-22T00:17:19;5.10;;;4.43;;
46589;SDS011;32313;48.722;9.362;2023-12-22T00:19:45;4.70;;;4.30;;
46589;SDS011;32313;48.722;9.362;2023-12-22T00:22:10;7.27;;;4.60;;
46589;SDS011;32313;48.722;9.362;2023-12-22T00:24:36;7.87;;;4.90;;
46589;SDS011;32313;48.722;9.362;2023-12-22T00:27:02;7.23;;;5.40;;
46589;SDS011;32313;48.722;9.362;2023-12-22T00:29:29;6.43;;;4.30;;
46589;SDS011;32313;48.722;9.362;2023-12-22T00:31:55;7.53;;;5.10;;
46589;SDS011;32313;48.722;9.362;2023-12-22T00:34:24;5.77;;;5.17;;
46589;SDS011;32313;48.722;9.362;2023-12-22T00:36:51;8.10;;;5.10;;
46589;SDS011;32313;48.722;9.362;2023-12-22T00:39:16;8.20;;;4.70;;
46589;SDS011;32313;48.722;9.362;2023-12-22T00:41:42;7.73;;;5.63;;
46589;SDS011;32313;48.722;9.362;2023-12-22T00:44:07;8.87;;;5.00;;
46589;SDS011;32313;48.722;9.362;2023-12-22T00:46:34;7.67;;;5.17;;
46589;SDS011;32313;48.722;9.362;2023-12-22T00:49:00;7.93;;;5.40;;
46589;SDS011;32313;48.722;9.362;2023-12-22T00:51:26;10.00;;;5.67;;
46589;SDS011;32313;48.722;9.362;2023-12-22T00:53:51;6.20;;;4.07;;
46589;SDS011;32313;48.722;9.362;2023-12-22T00:56:17;6.70;;;4.57;;
46589;SDS011;32313;48.722;9.362;2023-12-22T00:58:43;8.10;;;4.27;;
46589;SDS011;32313;48.722;9.362;2023-12-22T01:01:08;5.40;;;4.10;;
46589;SDS011;32313;48.722;9.362;2023-12-22T01:03:34;5.73;;;4.20;;
46589;SDS011;32313;48.722;9.362;2023-12-22T01:06:03;4.83;;;4.27;;
46589;SDS011;32313;48.722;9.362;2023-12-22T01:08:28;7.10;;;4.47;;
46589;SDS011;32313;48.722;9.362;2023-12-22T01:10:57;5.67;;;4.37;;
46589;SDS011;32313;48.722;9.362;2023-12-22T01:13:24;6.70;;;4.53;;
46589;SDS011;32313;48.722;9.362;2023-12-22T01:15:49;7.20;;;4.27;;
46589;SDS011;32313;48.722;9.362;2023-12-22T01:18:17;5.23;;;4.30;;
46589;SDS011;32313;48.722;9.362;2023-12-22T01:20:43;6.43;;;4.33;;
46589;SDS011;32313;48.722;9.362;2023-12-22T01:23:09;6.77;;;4.87;;
46589;SDS011;32313;48.722;9.362;2023-12-22T01:25:34;6.40;;;4.60;;
46589;SDS011;32313;48.722;9.362;2023-12-22T01:28:01;5.37;;;4.50;;
46589;SDS011;32313;48.722;9.362;2023-12-22T01:30:27;8.13;;;5.20;;
46589;SDS011;32313;48.722;9.362;2023-12-22T01:32:53;8.27;;;4.83;;
46589;SDS011;32313;48.722;9.362;2023-12-22T01:35:18;7.40;;;4.97;;
46589;SDS011;32313;48.722;9.362;2023-12-22T01:37:44;6.37;;;4.27;;
46589;SDS011;32313;48.722;9.362;2023-12-22T01:40:12;5.00;;;4.60;;
46589;SDS011;32313;48.722;9.362;2023-12-22T01:42:38;5.13;;;4.63;;
46589;SDS011;32313;48.722;9.362;2023-12-22T01:45:05;6.30;;;5.47;;
46589;SDS011;32313;48.722;9.362;2023-12-22T01:47:31;5.87;;;5.17;;
46589;SDS011;32313;48.722;9.362;2023-12-22T01:49:58;5.50;;;5.07;;
46589;SDS011;32313;48.722;9.362;2023-12-22T01:52:24;8.50;;;4.80;;
46589;SDS011;32313;48.722;9.362;2023-12-22T01:54:51;6.67;;;5.00;;
46589;SDS011;32313;48.722;9.362;2023-12-22T01:57:17;7.33;;;4.93;;
46589;SDS011;32313;48.722;9.362;2023-12-22T01:59:44;8.00;;;5.00;;
46589;SDS011;32313;48.722;9.362;2023-12-22T02:02:11;4.90;;;4.30;;
46589;SDS011;32313;48.722;9.362;2023-12-22T02:04:37;5.67;;;4.70;;
46589;SDS011;32313;48.722;9.362;2023-12-22T02:07:02;5.43;;;4.23;;
46589;SDS011;32313;48.722;9.362;2023-12-22T02:09:28;6.67;;;4.10;;
46589;SDS011;32313;48.722;9.362;2023-12-22T02:11:54;4.70;;;4.30;;
46589;SDS011;32313;48.722;9.362;2023-12-22T02:14:20;4.87;;;3.83;;
46589;SDS011;32313;48.722;9.362;2023-12-22T02:16:48;4.60;;;3.90;;
46589;SDS011;32313;48.722;9.362;2023-12-22T02:19:22;4.70;;;4.30;;
46589;SDS011;32313;48.722;9.362;2023-12-22T02:22:05;4.07;;;3.70;;
46589;SDS011;32313;48.722;9.362;2023-12-22T02:24:32;4.47;;;4.10;;
46589;SDS011;32313;48.722;9.362;2023-12-22T02:27:14;6.20;;;4.07;;
46589;SDS011;32313;48.722;9.362;2023-12-22T02:29:57;4.77;;;4.37;;
46589;SDS011;32313;48.722;9.362;2023-12-22T02:32:33;4.60;;;4.20;;
46589;SDS011;32313;48.722;9.362;2023-12-22T02:35:07;4.47;;;4.13;;
46589;SDS011;32313;48.722;9.362;2023-12-22T02:37:40;5.07;;;3.70;;
46589;SDS011;32313;48.722;9.362;2023-12-22T02:40:07;4.17;;;3.87;;
46589;SDS011;32313;48.722;9.362;2023-12-22T02:42:34;5.10;;;4.53;;
46589;SDS011;32313;48.722;9.362;2023-12-22T02:45:03;4.47;;;3.83;;
46589;SDS011;32313;48.722;9.362;2023-12-22T02:47:30;3.90;;;3.50;;
46589;SDS011;32313;48.722;9.362;2023-12-22T02:49:58;5.30;;;3.80;;
46589;SDS011;32313;48.722;9.362;2023-12-22T02:52:25;5.37;;;4.87;;
46589;SDS011;32313;48.722;9.362;2023-12-22T02:54:50;4.90;;;4.50;;
46589;SDS011;32313;48.722;9.362;2023-12-22T02:57:16;5.90;;;4.40;;
46589;SDS011;32313;48.722;9.362;2023-12-22T02:59:42;5.33;;;4.27;;
46589;SDS011;32313;48.722;9.362;2023-12-22T03:02:08;4.50;;;4.07;;
46589;SDS011;32313;48.722;9.362;2023-12-22T03:04:33;5.50;;;4.40;;
46589;SDS011;32313;48.722;9.362;2023-12-22T03:06:59;6.63;;;4.07;;
46589;SDS011;32313;48.722;9.362;2023-12-22T03:09:25;3.93;;;3.63;;
46589;SDS011;32313;48.722;9.362;2023-12-22T03:11:50;6.00;;;4.23;;
46589;SDS011;32313;48.722;9.362;2023-12-22T03:14:19;6.10;;;4.33;;
46589;SDS011;32313;48.722;9.362;2023-12-22T03:16:45;5.40;;;4.00;;
46589;SDS011;32313;48.722;9.362;2023-12-22T03:19:11;5.13;;;4.73;;
46589;SDS011;32313;48.722;9.362;2023-12-22T03:21:36;4.27;;;3.87;;
46589;SDS011;32313;48.722;9.362;2023-12-22T03:24:02;4.90;;;4.40;;
46589;SDS011;32313;48.722;9.362;2023-12-22T03:26:28;4.63;;;4.23;;
46589;SDS011;32313;48.722;9.362;2023-12-22T03:28:53;4.10;;;3.90;;
46589;SDS011;32313;48.722;9.362;2023-12-22T03:31:19;4.43;;;3.87;;
46589;SDS011;32313;48.722;9.362;2023-12-22T03:33:45;4.50;;;3.60;;
46589;SDS011;32313;48.722;9.362;2023-12-22T03:36:11;4.57;;;3.93;;
46589;SDS011;32313;48.722;9.362;2023-12-22T03:38:36;5.83;;;4.67;;
46589;SDS011;32313;48.722;9.362;2023-12-22T03:41:02;4.30;;;3.70;;
46589;SDS011;32313;48.722;9.362;2023-12-22T03:43:28;6.43;;;4.10;;
46589;SDS011;32313;48.722;9.362;2023-12-22T03:45:56;4.00;;;3.70;;
46589;SDS011;32313;48.722;9.362;2023-12-22T03:48:22;7.23;;;4.10;;
46589;SDS011;32313;48.722;9.362;2023-12-22T03:50:59;4.63;;;3.67;;
46589;SDS011;32313;48.722;9.362;2023-12-22T03:53:25;4.20;;;3.80;;
46589;SDS011;32313;48.722;9.362;2023-12-22T03:55:51;5.13;;;3.53;;
46589;SDS011;32313;48.722;9.362;2023-12-22T03:58:16;5.20;;;4.30;;
46589;SDS011;32313;48.722;9.362;2023-12-22T04:00:43;7.00;;;4.10;;
46589;SDS011;32313;48.722;9.362;2023-12-22T04:03:09;4.40;;;3.70;;
46589;SDS011;32313;48.722;9.362;2023-12-22T04:05:34;6.03;;;3.87;;
46589;SDS011;32313;48.722;9.362;2023-12-22T04:08:00;4.43;;;3.37;;
46589;SDS011;32313;48.722;9.362;2023-12-22T04:10:26;6.90;;;4.20;;
46589;SDS011;32313;48.722;9.362;2023-12-22T04:12:52;7.87;;;4.77;;
46589;SDS011;32313;48.722;9.362;2023-12-22T04:15:17;4.80;;;4.20;;
46589;SDS011;32313;48.722;9.362;2023-12-22T04:17:43;4.63;;;4.20;;
46589;SDS011;32313;48.722;9.362;2023-12-22T04:20:09;7.17;;;4.60;;
46589;SDS011;32313;48.722;9.362;2023-12-22T04:22:36;6.20;;;4.77;;
46589;SDS011;32313;48.722;9.362;2023-12-22T04:25:01;5.27;;;4.77;;
46589;SDS011;32313;48.722;9.362;2023-12-22T04:27:27;8.10;;;4.70;;
46589;SDS011;32313;48.722;9.362;2023-12-22T04:29:53;5.03;;;4.53;;
46589;SDS011;32313;48.722;9.362;2023-12-22T04:32:18;7.10;;;4.77;;
46589;SDS011;32313;48.722;9.362;2023-12-22T04:34:44;6.53;;;5.20;;
46589;SDS011;32313;48.722;9.362;2023-12-22T04:37:10;7.37;;;5.03;;
46589;SDS011;32313;48.722;9.362;2023-12-22T04:39:35;9.17;;;5.30;;
46589;SDS011;32313;48.722;9.362;2023-12-22T04:42:01;6.93;;;4.83;;
46589;SDS011;32313;48.722;9.362;2023-12-22T04:44:27;6.33;;;4.50;;
46589;SDS011;32313;48.722;9.362;2023-12-22T04:46:52;6.40;;;4.47;;
46589;SDS011;32313;48.722;9.362;2023-12-22T04:49:18;9.77;;;5.10;;
46589;SDS011;32313;48.722;9.362;2023-12-22T04:51:43;5.37;;;4.50;;
46589;SDS011;32313;48.722;9.362;2023-12-22T04:54:09;5.47;;;4.20;;
46589;SDS011;32313;48.722;9.362;2023-12-22T04:56:35;6.90;;;4.60;;
46589;SDS011;32313;48.722;9.362;2023-12-22T04:59:00;5.30;;;4.70;;
46589;SDS011;32313;48.722;9.362;2023-12-22T05:01:26;4.63;;;4.23;;
46589;SDS011;32313;48.722;9.362;2023-12-22T05:03:52;5.20;;;4.67;;
46589;SDS011;32313;48.722;9.362;2023-12-22T05:06:25;4.67;;;4.03;;
46589;SDS011;32313;48.722;9.362;2023-12-22T05:08:51;4.33;;;4.00;;
46589;SDS011;32313;48.722;9.362;2023-12-22T05:11:16;4.40;;;4.00;;
46589;SDS011;32313;48.722;9.362;2023-12-22T05:13:42;7.37;;;4.43;;
46589;SDS011;32313;48.722;9.362;2023-12-22T05:16:09;5.17;;;4.00;;
46589;SDS011;32313;48.722;9.362;2023-12-22T05:18:35;4.40;;;4.00;;
46589;SDS011;32313;48.722;9.362;2023-12-22T05:21:01;4.57;;;4.13;;
46589;SDS011;32313;48.722;9.362;2023-12-22T05:23:26;4.43;;;4.03;;
46589;SDS011;32313;48.722;9.362;2023-12-22T05:25:52;4.93;;;3.70;;
46589;SDS011;32313;48.722;9.362;2023-12-22T05:28:18;5.73;;;4.37;;
46589;SDS011;32313;48.722;9.362;2023-12-22T05:30:43;4.43;;;3.80;;
46589;SDS011;32313;48.722;9.362;2023-12-22T05:33:09;7.03;;;4.50;;
46589;SDS011;32313;48.722;9.362;2023-12-22T05:35:35;6.67;;;5.40;;
46589;SDS011;32313;48.722;9.362;2023-12-22T05:38:00;6.30;;;4.33;;
46589;SDS011;32313;48.722;9.362;2023-12-22T05:40:26;9.33;;;4.73;;
46589;SDS011;32313;48.722;9.362;2023-12-22T05:42:52;8.27;;;4.57;;
46589;SDS011;32313;48.722;9.362;2023-12-22T05:45:19;9.87;;;4.90;;
46589;SDS011;32313;48.722;9.362;2023-12-22T05:47:48;10.17;;;5.43;;
46589;SDS011;32313;48.722;9.362;2023-12-22T05:50:15;8.17;;;5.07;;
46589;SDS011;32313;48.722;9.362;2023-12-22T05:52:42;8.03;;;4.47;;
46589;SDS011;32313;48.722;9.362;2023-12-22T05:55:12;8.20;;;5.10;;
46589;SDS011;32313;48.722;9.362;2023-12-22T05:57:38;8.30;;;4.80;;
46589;SDS011;32313;48.722;9.362;2023-12-22T06:00:04;8.30;;;4.83;;
46589;SDS011;32313;48.722;9.362;2023-12-22T06:02:32;8.10;;;4.80;;
46589;SDS011;32313;48.722;9.362;2023-12-22T06:04:59;9.43;;;5.00;;
46589;SDS011;32313;48.722;9.362;2023-12-22T06:07:25;8.57;;;5.23;;
46589;SDS011;32313;48.722;9.362;2023-12-22T06:09:51;11.07;;;5.10;;
46589;SDS011;32313;48.722;9.362;2023-12-22T06:12:17;10.03;;;5.63;;
46589;SDS011;32313;48.722;9.362;2023-12-22T06:14:42;10.67;;;4.93;;
46589;SDS011;32313;48.722;9.362;2023-12-22T06:17:10;11.63;;;5.57;;
46589;SDS011;32313;48.722;9.362;2023-12-22T06:19:36;7.90;;;5.03;;
46589;SDS011;32313;48.722;9.362;2023-12-22T06:22:02;7.47;;;4.80;;
46589;SDS011;32313;48.722;9.362;2023-12-22T06:24:28;7.03;;;5.27;;
46589;SDS011;32313;48.722;9.362;2023-12-22T06:26:53;10.50;;;5.00;;
46589;SDS011;32313;48.722;9.362;2023-12-22T06:29:19;6.70;;;5.03;;
46589;SDS011;32313;48.722;9.362;2023-12-22T06:31:45;8.90;;;4.33;;
46589;SDS011;32313;48.722;9.362;2023-12-22T06:34:18;11.13;;;5.17;;
46589;SDS011;32313;48.722;9.362;2023-12-22T06:36:44;6.43;;;4.67;;
46589;SDS011;32313;48.722;9.362;2023-12-22T06:39:10;7.17;;;4.60;;
46589;SDS011;32313;48.722;9.362;2023-12-22T06:41:35;10.40;;;5.07;;
46589;SDS011;32313;48.722;9.362;2023-12-22T06:44:01;9.17;;;5.13;;
46589;SDS011;32313;48.722;9.362;2023-12-22T06:46:27;11.10;;;4.47;;
46589;SDS011;32313;48.722;9.362;2023-12-22T06:48:54;10.77;;;5.10;;
46589;SDS011;32313;48.722;9.362;2023-12-22T06:51:27;10.60;;;4.80;;
46589;SDS011;32313;48.722;9.362;2023-12-22T06:53:58;7.13;;;4.33;;
46589;SDS011;32313;48.722;9.362;2023-12-22T06:56:28;5.30;;;4.57;;
46589;SDS011;32313;48.722;9.362;2023-12-22T06:58:55;7.47;;;4.40;;
46589;SDS011;32313;48.722;9.362;2023-12-22T07:01:28;8.07;;;4.17;;
46589;SDS011;32313;48.722;9.362;2023-12-22T07:03:59;9.43;;;4.33;;
46589;SDS011;32313;48.722;9.362;2023-12-22T07:06:26;7.60;;;4.40;;
46589;SDS011;32313;48.722;9.362;2023-12-22T07:08:57;8.50;;;4.27;;
46589;SDS011;32313;48.722;9.362;2023-12-22T07:11:22;4.93;;;4.00;;
46589;SDS011;32313;48.722;9.362;2023-12-22T07:13:48;6.97;;;4.43;;
46589;SDS011;32313;48.722;9.362;2023-12-22T07:16:14;5.53;;;3.73;;
46589;SDS011;32313;48.722;9.362;2023-12-22T07:18:40;6.03;;;3.67;;
46589;SDS011;32313;48.722;9.362;2023-12-22T07:21:06;7.37;;;4.40;;
46589;SDS011;32313;48.722;9.362;2023-12-22T07:23:32;9.90;;;4.90;;
46589;SDS011;32313;48.722;9.362;2023-12-22T07:25:58;4.70;;;4.27;;
46589;SDS011;32313;48.722;9.362;2023-12-22T07:28:23;7.33;;;4.63;;
46589;SDS011;32313;48.722;9.362;2023-12-22T07:30:49;5.63;;;4.00;;
46589;SDS011;32313;48.722;9.362;2023-12-22T07:33:15;6.83;;;4.70;;
46589;SDS011;32313;48.722;9.362;2023-12-22T07:35:41;10.07;;;4.30;;
46589;SDS011;32313;48.722;9.362;2023-12-22T07:38:07;5.63;;;4.33;;
46589;SDS011;32313;48.722;9.362;2023-12-22T07:40:34;6.93;;;4.33;;
46589;SDS011;32313;48.722;9.362;2023-12-22T07:43:00;9.20;;;5.37;;
46589;SDS011;32313;48.722;9.362;2023-12-22T07:45:25;9.23;;;4.97;;
46589;SDS011;32313;48.722;9.362;2023-12-22T07:47:53;7.33;;;4.87;;
46589;SDS011;32313;48.722;9.362;2023-12-22T07:50:19;8.47;;;4.47;;
46589;SDS011;32313;48.722;9.362;2023-12-22T07:52:46;6.77;;;4.67;;
46589;SDS011;32313;48.722;9.362;2023-12-22T07:55:12;11.70;;;4.60;;
46589;SDS011;32313;48.722;9.362;2023-12-22T07:57:38;5.80;;;4.13;;
46589;SDS011;32313;48.722;9.362;2023-12-22T08:00:04;7.17;;;5.03;;
46589;SDS011;32313;48.722;9.362;2023-12-22T08:02:37;7.77;;;4.57;;
46589;SDS011;32313;48.722;9.362;2023-12-22T08:05:03;7.13;;;4.40;;
46589;SDS011;32313;48.722;9.362;2023-12-22T08:07:29;5.80;;;4.20;;
46589;SDS011;32313;48.722;9.362;2023-12-22T08:09:55;6.97;;;4.40;;
46589;SDS011;32313;48.722;9.362;2023-12-22T08:12:21;4.47;;;3.97;;
46589;SDS011;32313;48.722;9.362;2023-12-22T08:14:47;6.97;;;4.63;;
46589;SDS011;32313;48.722;9.362;2023-12-22T08:17:14;9.27;;;4.73;;
46589;SDS011;32313;48.722;9.362;2023-12-22T08:19:40;9.23;;;5.00;;
46589;SDS011;32313;48.722;9.362;2023-12-22T08:22:09;8.30;;;4.83;;
46589;SDS011;32313;48.722;9.362;2023-12-22T08:24:36;7.37;;;4.60;;
46589;SDS011;32313;48.722;9.362;2023-12-22T08:27:01;9.20;;;4.70;;
46589;SDS011;32313;48.722;9.362;2023-12-22T08:29:28;9.37;;;4.73;;
46589;SDS011;32313;48.722;9.362;2023-12-22T08:31:54;10.90;;;5.40;;
46589;SDS011;32313;48.722;9.362;2023-12-22T08:34:20;7.93;;;4.70;;
46589;SDS011;32313;48.722;9.362;2023-12-22T08:36:46;9.63;;;5.03;;
46589;SDS011;32313;48.722;9.362;2023-12-22T08:39:11;11.10;;;5.50;;
46589;SDS011;32313;48.722;9.362;2023-12-22T08:41:37;11.93;;;5.60;;
46589;SDS011;32313;48.722;9.362;2023-12-22T08:44:06;8.13;;;5.30;;
46589;SDS011;32313;48.722;9.362;2023-12-22T08:46:33;8.63;;;5.10;;
46589;SDS011;32313;48.722;9.362;2023-12-22T08:48:59;13.83;;;5.40;;
46589;SDS011;32313;48.722;9.362;2023-12-22T08:51:25;11.73;;;6.27;;
46589;SDS011;32313;48.722;9.362;2023-12-22T08:53:53;12.20;;;5.63;;
46589;SDS011;32313;48.722;9.362;2023-12-22T08:56:21;16.00;;;6.67;;
46589;SDS011;32313;48.722;9.362;2023-12-22T08:58:51;14.50;;;6.03;;
46589;SDS011;32313;48.722;9.362;2023-12-22T09:01:20;9.83;;;5.33;;
46589;SDS011;32313;48.722;9.362;2023-12-22T09:03:47;10.07;;;5.40;;
46589;SDS011;32313;48.722;9.362;2023-12-22T09:06:18;14.77;;;5.83;;
46589;SDS011;32313;48.722;9.362;2023-12-22T09:08:44;12.57;;;5.80;;
46589;SDS011;32313;48.722;9.362;2023-12-22T09:11:11;13.40;;;6.17;;
46589;SDS011;32313;48.722;9.362;2023-12-22T09:13:37;10.37;;;5.40;;
46589;SDS011;32313;48.722;9.362;2023-12-22T09:16:03;7.03;;;5.23;;
46589;SDS011;32313;48.722;9.362;2023-12-22T09:18:30;12.83;;;5.70;;
46589;SDS011;32313;48.722;9.362;2023-12-22T09:20:56;12.17;;;5.77;;
46589;SDS011;32313;48.722;9.362;2023-12-22T09:23:22;9.93;;;6.00;;
46589;SDS011;32313;48.722;9.362;2023-12-22T09:25:48;11.40;;;5.27;;
46589;SDS011;32313;48.722;9.362;2023-12-22T09:28:15;16.13;;;7.33;;
46589;SDS011;32313;48.722;9.362;2023-12-22T09:30:42;13.77;;;5.40;;
46589;SDS011;32313;48.722;9.362;2023-12-22T09:33:09;10.43;;;5.67;;
46589;SDS011;32313;48.722;9.362;2023-12-22T09:35:35;13.37;;;6.03;;
46589;SDS011;32313;48.722;9.362;2023-12-22T09:38:01;10.80;;;5.07;;
46589;SDS011;32313;48.722;9.362;2023-12-22T09:40:27;10.50;;;5.37;;
46589;SDS011;32313;48.722;9.362;2023-12-22T09:42:56;12.60;;;5.60;;
46589;SDS011;32313;48.722;9.362;2023-12-22T09:45:23;12.60;;;5.77;;
46589;SDS011;32313;48.722;9.362;2023-12-22T09:47:51;12.73;;;6.30;;
46589;SDS011;32313;48.722;9.362;2023-12-22T09:50:20;13.27;;;6.17;;
46589;SDS011;32313;48.722;9.362;2023-12-22T09:52:46;13.40;;;6.43;;
46589;SDS011;32313;48.722;9.362;2023-12-22T09:55:13;13.70;;;6.10;;
46589;SDS011;32313;48.722;9.362;2023-12-22T09:57:39;14.20;;;5.90;;
46589;SDS011;32313;48.722;9.362;2023-12-22T10:00:10;11.30;;;5.70;;
46589;SDS011;32313;48.722;9.362;2023-12-22T10:02:38;12.73;;;5.20;;
46589;SDS011;32313;48.722;9.362;2023-12-22T10:05:05;14.53;;;6.97;;
46589;SDS011;32313;48.722;9.362;2023-12-22T10:07:32;13.83;;;5.80;;
46589;SDS011;32313;48.722;9.362;2023-12-22T10:09:59;15.47;;;5.50;;
46589;SDS011;32313;48.722;9.362;2023-12-22T10:12:28;13.70;;;5.80;;
46589;SDS011;32313;48.722;9.362;2023-12-22T10:14:56;13.03;;;5.23;;
46589;SDS011;32313;48.722;9.362;2023-12-22T10:17:26;12.17;;;5.73;;
46589;SDS011;32313;48.722;9.362;2023-12-22T10:19:53;16.03;;;7.23;;
46589;SDS011;32313;48.722;9.362;2023-12-22T10:22:21;11.67;;;5.73;;
46589;SDS011;32313;48.722;9.362;2023-12-22T10:24:49;12.10;;;5.83;;
46589;SDS011;32313;48.722;9.362;2023-12-22T10:27:16;12.80;;;6.30;;
46589;SDS011;32313;48.722;9.362;2023-12-22T10:29:50;14.57;;;5.83;;
46589;SDS011;32313;48.722;9.362;2023-12-22T10:32:18;13.07;;;6.53;;
46589;SDS011;32313;48.722;9.362;2023-12-22T10:34:46;10.83;;;5.97;;
46589;SDS011;32313;48.722;9.362;2023-12-22T10:37:12;16.93;;;6.97;;
46589;SDS011;32313;48.722;9.362;2023-12-22T10:39:47;14.33;;;6.57;;
46589;SDS011;32313;48.722;9.362;2023-12-22T10:42:17;10.83;;;5.27;;
46589;SDS011;32313;48.722;9.362;2023-12-22T10:44:43;11.83;;;5.60;;
46589;SDS011;32313;48.722;9.362;2023-12-22T10:47:09;9.23;;;5.37;;
46589;SDS011;32313;48.722;9.362;2023-12-22T10:49:34;11.60;;;6.70;;
46589;SDS011;32313;48.722;9.362;2023-12-22T10:52:01;13.57;;;6.10;;
46589;SDS011;32313;48.722;9.362;2023-12-22T10:54:27;14.07;;;6.17;;
46589;SDS011;32313;48.722;9.362;2023-12-22T10:56:58;12.27;;;5.97;;
46589;SDS011;32313;48.722;9.362;2023-12-22T10:59:28;8.93;;;5.13;;
46589;SDS011;32313;48.722;9.362;2023-12-22T11:01:58;14.93;;;6.23;;
46589;SDS011;32313;48.722;9.362;2023-12-22T11:04:29;10.83;;;4.77;;
46589;SDS011;32313;48.722;9.362;2023-12-22T11:06:59;11.80;;;5.57;;
46589;SDS011;32313;48.722;9.362;2023-12-22T11:09:29;9.93;;;5.27;;
46589;SDS011;32313;48.722;9.362;2023-12-22T11:11:58;10.47;;;5.20;;
46589;SDS011;32313;48.722;9.362;2023-12-22T11:14:28;7.17;;;4.57;;
46589;SDS011;32313;48.722;9.362;2023-12-22T11:16:56;5.87;;;4.50;;
46589;SDS011;32313;48.722;9.362;2023-12-22T11:19:25;8.17;;;4.57;;
46589;SDS011;32313;48.722;9.362;2023-12-22T11:21:53;8.30;;;4.23;;
46589;SDS011;32313;48.722;9.362;2023-12-22T11:24:21;7.20;;;4.43;;
46589;SDS011;32313;48.722;9.362;2023-12-22T11:26:47;6.10;;;4.47;;
46589;SDS011;32313;48.722;9.362;2023-12-22T11:29:18;7.60;;;4.03;;
46589;SDS011;32313;48.722;9.362;2023-12-22T11:31:45;9.43;;;4.60;;
46589;SDS011;32313;48.722;9.362;2023-12-22T11:34:14;7.23;;;4.40;;
46589;SDS011;32313;48.722;9.362;2023-12-22T11:36:43;7.30;;;5.00;;
46589;SDS011;32313;48.722;9.362;2023-12-22T11:39:12;7.67;;;4.70;;
46589;SDS011;32313;48.722;9.362;2023-12-22T11:41:39;7.53;;;4.00;;
46589;SDS011;32313;48.722;9.362;2023-12-22T11:44:08;4.80;;;4.33;;
46589;SDS011;32313;48.722;9.362;2023-12-22T11:46:34;6.47;;;3.97;;
46589;SDS011;32313;48.722;9.362;2023-12-22T11:49:00;4.87;;;4.10;;
46589;SDS011;32313;48.722;9.362;2023-12-22T11:51:30;9.67;;;4.50;;
46589;SDS011;32313;48.722;9.362;2023-12-22T11:53:59;7.20;;;4.23;;
46589;SDS011;32313;48.722;9.362;2023-12-22T11:56:26;7.57;;;4.60;;
46589;SDS011;32313;48.722;9.362;2023-12-22T11:58:53;8.43;;;4.10;;
46589;SDS011;32313;48.722;9.362;2023-12-22T12:01:23;6.20;;;4.73;;
46589;SDS011;32313;48.722;9.362;2023-12-22T12:03:50;6.40;;;4.27;;
46589;SDS011;32313;48.722;9.362;2023-12-22T12:06:21;8.20;;;4.77;;
46589;SDS011;32313;48.722;9.362;2023-12-22T12:08:57;6.53;;;4.40;;
46589;SDS011;32313;48.722;9.362;2023-12-22T12:11:24;8.50;;;4.33;;
46589;SDS011;32313;48.722;9.362;2023-12-22T12:14:26;7.07;;;5.07;;
46589;SDS011;32313;48.722;9.362;2023-12-22T12:16:59;9.43;;;5.10;;
46589;SDS011;32313;48.722;9.362;2023-12-22T12:19:35;5.73;;;4.73;;
46589;SDS011;32313;48.722;9.362;2023-12-22T12:22:02;7.63;;;4.30;;
46589;SDS011;32313;48.722;9.362;2023-12-22T12:24:28;8.27;;;5.17;;
46589;SDS011;32313;48.722;9.362;2023-12-22T12:30:20;5.40;;;4.50;;
46589;SDS011;32313;48.722;9.362;2023-12-22T12:32:47;5.07;;;4.03;;
46589;SDS011;32313;48.722;9.362;2023-12-22T12:35:14;6.73;;;4.67;;
46589;SDS011;32313;48.722;9.362;2023-12-22T12:37:40;5.00;;;4.00;;
46589;SDS011;32313;48.722;9.362;2023-12-22T12:40:09;5.27;;;4.37;;
46589;SDS011;32313;48.722;9.362;2023-12-22T12:42:36;6.57;;;3.97;;
46589;SDS011;32313;48.722;9.362;2023-12-22T12:45:07;4.90;;;4.13;;
46589;SDS011;32313;48.722;9.362;2023-12-22T12:47:34;4.87;;;4.40;;
46589;SDS011;32313;48.722;9.362;2023-12-22T12:50:01;4.40;;;4.00;;
46589;SDS011;32313;48.722;9.362;2023-12-22T12:52:28;5.13;;;3.50;;
46589;SDS011;32313;48.722;9.362;2023-12-22T12:54:54;4.83;;;4.10;;
46589;SDS011;32313;48.722;9.362;2023-12-22T12:57:21;4.10;;;3.80;;
46589;SDS011;32313;48.722;9.362;2023-12-22T12:59:47;4.50;;;4.20;;
46589;SDS011;32313;48.722;9.362;2023-12-22T13:02:17;4.30;;;4.00;;
46589;SDS011;32313;48.722;9.362;2023-12-22T13:04:46;4.67;;;4.27;;
46589;SDS011;32313;48.722;9.362;2023-12-22T13:07:11;4.00;;;3.70;;
46589;SDS011;32313;48.722;9.362;2023-12-22T13:09:40;4.40;;;4.00;;
46589;SDS011;32313;48.722;9.362;2023-12-22T13:12:08;4.07;;;3.70;;
46589;SDS011;32313;48.722;9.362;2023-12-22T13:14:35;4.13;;;3.83;;
46589;SDS011;32313;48.722;9.362;2023-12-22T13:17:00;4.03;;;3.73;;
46589;SDS011;32313;48.722;9.362;2023-12-22T13:19:28;4.33;;;3.83;;
46589;SDS011;32313;48.722;9.362;2023-12-22T13:21:56;4.23;;;3.80;;
46589;SDS011;32313;48.722;9.362;2023-12-22T13:24:22;4.83;;;4.40;;
46589;SDS011;32313;48.722;9.362;2023-12-22T13:26:58;4.20;;;3.90;;
46589;SDS011;32313;48.722;9.362;2023-12-22T13:29:28;4.23;;;3.83;;
46589;SDS011;32313;48.722;9.362;2023-12-22T13:31:54;3.93;;;3.53;;
46589;SDS011;32313;48.722;9.362;2023-12-22T13:34:22;3.83;;;3.53;;
46589;SDS011;32313;48.722;9.362;2023-12-22T13:36:48;3.67;;;3.47;;
46589;SDS011;32313;48.722;9.362;2023-12-22T13:39:14;3.80;;;3.50;;
46589;SDS011;32313;48.722;9.362;2023-12-22T13:41:40;3.83;;;3.63;;
46589;SDS011;32313;48.722;9.362;2023-12-22T13:44:10;3.63;;;3.33;;
46589;SDS011;32313;48.722;9.362;2023-12-22T13:46:36;3.33;;;3.13;;
46589;SDS011;32313;48.722;9.362;2023-12-22T13:49:09;3.43;;;3.30;;
46589;SDS011;32313;48.722;9.362;2023-12-22T13:51:39;3.40;;;3.10;;
46589;SDS011;32313;48.722;9.362;2023-12-22T13:54:08;3.10;;;2.93;;
46589;SDS011;32313;48.722;9.362;2023-12-22T13:56:37;3.63;;;3.33;;
46589;SDS011;32313;48.722;9.362;2023-12-22T13:59:07;3.33;;;3.13;;
46589;SDS011;32313;48.722;9.362;2023-12-22T14:01:33;3.67;;;3.47;;
46589;SDS011;32313;48.722;9.362;2023-12-22T14:03:59;3.43;;;3.17;;
46589;SDS011;32313;48.722;9.362;2023-12-22T14:06:25;3.53;;;3.27;;
46589;SDS011;32313;48.722;9.362;2023-12-22T14:08:51;3.20;;;3.00;;
46589;SDS011;32313;48.722;9.362;2023-12-22T14:11:19;3.33;;;3.13;;
46589;SDS011;32313;48.722;9.362;2023-12-22T14:13:47;2.93;;;2.73;;
46589;SDS011;32313;48.722;9.362;2023-12-22T14:16:14;3.47;;;3.10;;
46589;SDS011;32313;48.722;9.362;2023-12-22T14:18:41;3.10;;;3.00;;
46589;SDS011;32313;48.722;9.362;2023-12-22T14:21:10;3.23;;;3.03;;
46589;SDS011;32313;48.722;9.362;2023-12-22T14:23:36;2.70;;;2.60;;
46589;SDS011;32313;48.722;9.362;2023-12-22T14:26:02;3.03;;;2.93;;
46589;SDS011;32313;48.722;9.362;2023-12-22T14:28:28;3.03;;;2.93;;
46589;SDS011;32313;48.722;9.362;2023-12-22T14:30:53;2.90;;;2.80;;
46589;SDS011;32313;48.722;9.362;2023-12-22T14:33:19;2.70;;;2.60;;
46589;SDS011;32313;48.722;9.362;2023-12-22T14:35:45;2.70;;;2.60;;
46589;SDS011;32313;48.722;9.362;2023-12-22T14:38:10;2.53;;;2.43;;
46589;SDS011;32313;48.722;9.362;2023-12-22T14:40:36;2.70;;;2.60;;
46589;SDS011;32313;48.722;9.362;2023-12-22T14:43:03;3.00;;;2.90;;
46589;SDS011;32313;48.722;9.362;2023-12-22T14:45:30;2.87;;;2.77;;
46589;SDS011;32313;48.722;9.362;2023-12-22T14:47:56;2.53;;;2.43;;